Time;durP1;ratioP1;P1;durP2;ratioP2;P2;SDS_P1;SDS_P2;PMS_P1;PMS_P2;Temp;Humidity;BMP_temperature;BMP_pressure;BME280_temperature;BME280_humidity;BME280_pressure;Samples;Min_cycle;Max_cycle;Signal;HPM_P1;HPM_P2
2022/07/12 00:01:26;;;;;;;3.95;1.30;;;28.70;45.20;;;;;;7372611;19;20109;-75
2022/07/12 00:03:55;;;;;;;1.13;0.93;;;28.60;45.20;;;;;;7373483;19;20086;-75
2022/07/12 00:06:26;;;;;;;3.30;1.30;;;28.60;45.40;;;;;;7395236;19;20093;-75
2022/07/12 00:08:55;;;;;;;3.33;1.30;;;28.50;45.60;;;;;;7373104;19;20078;-75
2022/07/12 00:11:24;;;;;;;3.25;1.17;;;28.40;45.70;;;;;;7373716;19;20078;-75
2022/07/12 00:13:53;;;;;;;4.88;1.20;;;28.40;45.80;;;;;;7369959;19;20078;-75
2022/07/12 00:16:22;;;;;;;3.58;1.23;;;28.30;45.90;;;;;;7372940;19;20114;-75
2022/07/12 00:18:51;;;;;;;6.00;1.30;;;28.30;46.00;;;;;;7372491;19;20019;-75
2022/07/12 00:21:20;;;;;;;3.13;1.20;;;28.30;46.20;;;;;;7395712;19;20030;-75
2022/07/12 00:23:51;;;;;;;5.13;1.17;;;28.20;46.20;;;;;;7371647;19;20110;-76
2022/07/12 00:26:20;;;;;;;7.47;1.20;;;28.20;46.40;;;;;;7372456;19;20072;-75
2022/07/12 00:28:49;;;;;;;1.70;1.08;;;28.10;46.40;;;;;;7374498;19;20023;-76
2022/07/12 00:31:17;;;;;;;2.10;1.30;;;28.10;46.60;;;;;;7371999;19;20018;-76
2022/07/12 00:33:46;;;;;;;3.00;1.48;;;28.00;46.80;;;;;;7373256;19;20093;-76
2022/07/12 00:36:15;;;;;;;2.17;1.20;;;28.00;46.80;;;;;;7395693;19;20101;-75
2022/07/12 00:38:44;;;;;;;9.27;1.30;;;27.90;46.80;;;;;;7372329;19;20014;-76
2022/07/12 00:41:15;;;;;;;4.78;1.30;;;27.90;46.80;;;;;;7368670;19;20412;-75
2022/07/12 00:43:44;;;;;;;5.32;1.45;;;27.90;47.00;;;;;;7371501;19;20045;-75
2022/07/12 00:46:13;;;;;;;5.07;1.55;;;27.80;47.00;;;;;;7371759;19;20010;-75
2022/07/12 00:48:42;;;;;;;3.42;1.60;;;27.80;47.10;;;;;;7373147;19;20110;-76
2022/07/12 00:51:11;;;;;;;8.38;1.75;;;27.80;47.20;;;;;;7392109;19;20049;-75
2022/07/12 00:53:39;;;;;;;13.35;1.90;;;27.80;47.30;;;;;;7370912;19;20019;-75
2022/07/12 00:56:09;;;;;;;4.57;2.08;;;27.70;47.50;;;;;;7371705;19;20041;-74
2022/07/12 00:58:40;;;;;;;3.58;1.88;;;27.60;47.60;;;;;;7370288;19;20029;-74
2022/07/12 01:01:09;;;;;;;4.85;1.77;;;27.50;47.80;;;;;;7373022;19;20021;-76
2022/07/12 01:03:38;;;;;;;5.88;2.53;;;27.50;47.90;;;;;;7372887;19;20683;-76
2022/07/12 01:06:08;;;;;;;5.88;2.22;;;27.40;48.00;;;;;;7394335;19;20404;-75
2022/07/12 01:08:37;;;;;;;4.80;2.30;;;27.40;48.10;;;;;;7371460;19;20018;-75
2022/07/12 01:11:07;;;;;;;4.50;2.10;;;27.40;48.20;;;;;;7370000;19;20047;-75
2022/07/12 01:13:37;;;;;;;6.47;2.47;;;27.40;48.10;;;;;;7371733;19;20138;-75
2022/07/12 01:16:10;;;;;;;7.30;2.35;;;27.40;48.20;;;;;;7372068;19;20078;-76
2022/07/12 01:18:40;;;;;;;8.95;2.45;;;27.30;48.30;;;;;;7371171;19;20445;-75
2022/07/12 01:21:11;;;;;;;9.30;2.50;;;27.30;48.40;;;;;;7392850;19;20014;-75
2022/07/12 01:23:42;;;;;;;4.18;2.20;;;27.20;48.50;;;;;;7370929;19;20052;-74
2022/07/12 01:26:15;;;;;;;4.75;2.05;;;27.20;48.50;;;;;;7370969;19;20022;-74
2022/07/12 01:28:44;;;;;;;3.35;1.95;;;27.20;48.40;;;;;;7370692;19;20094;-75
2022/07/12 01:31:14;;;;;;;7.28;2.22;;;27.30;48.50;;;;;;7371136;19;20014;-74
2022/07/12 01:33:42;;;;;;;4.07;2.40;;;27.30;48.40;;;;;;7370510;19;20090;-75
2022/07/12 01:36:11;;;;;;;4.82;2.42;;;27.30;48.30;;;;;;7392707;19;20022;-75
2022/07/12 01:38:46;;;;;;;4.95;2.45;;;27.30;48.30;;;;;;7368572;19;20034;-74
2022/07/12 01:41:15;;;;;;;4.60;2.10;;;27.20;48.30;;;;;;7368210;19;20074;-75
2022/07/12 01:43:43;;;;;;;6.50;2.00;;;27.30;48.60;;;;;;7371964;19;20073;-75
2022/07/12 01:46:12;;;;;;;5.28;2.17;;;27.20;48.70;;;;;;7372332;19;20023;-76
2022/07/12 01:48:41;;;;;;;4.53;2.00;;;27.20;48.60;;;;;;7369975;19;20043;-76
2022/07/12 01:51:10;;;;;;;5.78;2.15;;;27.20;48.40;;;;;;7389923;19;20023;-74
2022/07/12 01:53:42;;;;;;;3.20;2.25;;;27.20;48.40;;;;;;7369237;19;20028;-75
2022/07/12 01:56:11;;;;;;;3.88;2.00;;;27.20;49.20;;;;;;7369275;19;20077;-75
2022/07/12 01:58:40;;;;;;;4.65;2.05;;;27.10;48.70;;;;;;7370993;19;20029;-75
2022/07/12 02:01:10;;;;;;;4.20;2.13;;;27.10;48.80;;;;;;7370108;19;20117;-75
2022/07/12 02:03:39;;;;;;;6.03;2.00;;;27.10;48.70;;;;;;7370069;19;20090;-75
2022/07/12 02:06:08;;;;;;;3.60;1.90;;;27.00;48.80;;;;;;7389090;19;20271;-76
2022/07/12 02:08:37;;;;;;;3.33;2.20;;;27.00;48.80;;;;;;7367976;19;20018;-76
2022/07/12 02:11:08;;;;;;;2.80;1.75;;;27.00;48.80;;;;;;7370850;19;20010;-75
2022/07/12 02:13:37;;;;;;;3.88;2.13;;;26.90;49.00;;;;;;7367668;19;20634;-76
2022/07/12 02:16:06;;;;;;;6.25;2.67;;;26.80;49.30;;;;;;7370191;19;20024;-74
2022/07/12 02:18:38;;;;;;;3.75;1.70;;;26.80;49.60;;;;;;7370040;19;20477;-74
2022/07/12 02:21:08;;;;;;;5.45;2.33;;;26.70;49.70;;;;;;7389354;19;20098;-75
2022/07/12 02:23:40;;;;;;;7.55;2.33;;;26.70;49.50;;;;;;7369210;19;20087;-75
2022/07/12 02:26:11;;;;;;;4.65;2.20;;;26.70;49.50;;;;;;7368820;19;20021;-75
2022/07/12 02:28:40;;;;;;;4.93;2.15;;;26.60;49.70;;;;;;7370532;19;20347;-75
2022/07/12 02:31:09;;;;;;;5.30;2.10;;;26.70;49.70;;;;;;7369117;19;20014;-75
2022/07/12 02:33:38;;;;;;;4.07;1.90;;;26.60;49.70;;;;;;7364189;19;20448;-76
2022/07/12 02:36:07;;;;;;;4.32;2.00;;;26.60;49.80;;;;;;7388477;19;20031;-75
2022/07/12 02:38:36;;;;;;;8.63;2.08;;;26.60;49.90;;;;;;7370283;19;20015;-75
2022/07/12 02:41:05;;;;;;;4.72;1.80;;;26.60;49.90;;;;;;7368763;19;20035;-75
2022/07/12 02:43:36;;;;;;;4.18;2.20;;;26.50;50.00;;;;;;7368873;19;20081;-75
2022/07/12 02:46:07;;;;;;;5.00;2.00;;;26.50;50.10;;;;;;7368930;19;20036;-75
2022/07/12 02:48:36;;;;;;;3.20;1.88;;;26.40;50.20;;;;;;7369753;19;20881;-76
2022/07/12 02:51:07;;;;;;;4.90;2.10;;;26.40;50.40;;;;;;7388534;19;20354;-76
2022/07/12 02:53:37;;;;;;;5.75;2.10;;;26.40;50.00;;;;;;7371158;19;20021;-74
2022/07/12 02:56:06;;;;;;;3.00;2.00;;;26.40;49.90;;;;;;7376002;19;20109;-74
2022/07/12 02:58:38;;;;;;;6.43;2.00;;;26.40;50.20;;;;;;7376000;19;20015;-74
2022/07/12 03:01:07;;;;;;;3.60;2.10;;;26.30;50.20;;;;;;7374645;19;20098;-75
2022/07/12 03:03:39;;;;;;;3.35;2.20;;;26.40;50.40;;;;;;7372090;19;20019;-75
2022/07/12 03:06:08;;;;;;;4.75;1.88;;;26.30;50.60;;;;;;7397946;19;20023;-75
2022/07/12 03:08:37;;;;;;;7.60;2.00;;;26.10;50.80;;;;;;7375635;19;20077;-74
2022/07/12 03:11:06;;;;;;;5.40;2.45;;;26.00;50.80;;;;;;7374957;19;20408;-75
2022/07/12 03:13:37;;;;;;;4.60;1.88;;;26.00;51.00;;;;;;7374523;19;20128;-75
2022/07/12 03:16:07;;;;;;;4.85;1.90;;;26.00;51.00;;;;;;7373888;19;20014;-75
2022/07/12 03:18:36;;;;;;;3.40;1.77;;;25.90;51.10;;;;;;7377785;19;20077;-76
2022/07/12 03:21:04;;;;;;;2.42;1.90;;;26.00;51.10;;;;;;7392998;19;20045;-74
2022/07/12 03:23:33;;;;;;;3.55;1.70;;;26.00;51.10;;;;;;7373940;19;20015;-74
2022/07/12 03:26:02;;;;;;;7.63;1.80;;;25.90;50.70;;;;;;7373711;19;20089;-74
2022/07/12 03:28:31;;;;;;;2.50;1.98;;;25.90;50.90;;;;;;7374379;19;20030;-75
2022/07/12 03:31:02;;;;;;;3.50;2.20;;;25.90;50.90;;;;;;7375785;19;20641;-75
2022/07/12 03:33:31;;;;;;;2.65;1.67;;;25.90;50.90;;;;;;7394030;19;20108;-75
2022/07/12 03:36:00;;;;;;;3.75;2.08;;;25.90;51.00;;;;;;7371189;19;20082;-75
2022/07/12 03:38:29;;;;;;;4.22;1.90;;;25.80;50.90;;;;;;7372498;19;20022;-75
2022/07/12 03:40:57;;;;;;;4.00;1.90;;;25.90;51.10;;;;;;7374354;19;20105;-75
2022/07/12 03:43:26;;;;;;;2.30;2.00;;;25.80;51.00;;;;;;7374230;19;20022;-75
2022/07/12 03:45:55;;;;;;;2.90;2.20;;;25.80;51.20;;;;;;7375261;19;20070;-74
2022/07/12 03:48:26;;;;;;;3.30;1.98;;;25.70;51.40;;;;;;7396445;19;20026;-74
2022/07/12 03:50:55;;;;;;;;;;;25.60;51.60;;;;;;7374429;19;20078;-73
2022/07/12 03:53:24;;;;;;;2.70;1.75;;;25.60;51.90;;;;;;7373330;19;20635;-75
2022/07/12 03:55:53;;;;;;;5.00;2.20;;;25.50;51.80;;;;;;7372926;19;20082;-75
2022/07/12 03:58:22;;;;;;;2.60;1.85;;;25.50;51.80;;;;;;7375115;19;20034;-74
2022/07/12 04:00:51;;;;;;;8.45;2.20;;;25.40;52.00;;;;;;7371901;19;20041;-75
2022/07/12 04:03:19;;;;;;;2.88;1.83;;;25.40;52.00;;;;;;7394760;19;20350;-74
2022/07/12 04:05:51;;;;;;;2.35;1.80;;;25.40;51.60;;;;;;7370914;19;20142;-76
2022/07/12 04:08:19;;;;;;;2.22;1.88;;;25.40;51.60;;;;;;7373623;19;20086;-74
2022/07/12 04:10:48;;;;;;;4.43;1.65;;;25.40;51.50;;;;;;7370638;19;20023;-75
2022/07/12 04:13:17;;;;;;;3.47;2.20;;;25.40;51.60;;;;;;7374458;19;20082;-75
2022/07/12 04:15:46;;;;;;;5.20;2.08;;;25.40;51.90;;;;;;7368518;19;20078;-74
2022/07/12 04:18:14;;;;;;;5.68;2.00;;;25.40;51.90;;;;;;7393958;19;20018;-75
2022/07/12 04:20:43;;;;;;;4.32;1.85;;;25.40;52.00;;;;;;7373319;19;20085;-75
2022/07/12 04:23:14;;;;;;;2.95;2.10;;;25.30;52.10;;;;;;7373067;19;20125;-75
2022/07/12 04:25:43;;;;;;;4.88;1.80;;;25.30;52.40;;;;;;7370501;19;20025;-75
2022/07/12 04:28:12;;;;;;;3.08;1.85;;;25.30;52.30;;;;;;7373153;19;20081;-76
2022/07/12 04:30:42;;;;;;;2.22;1.77;;;25.40;52.40;;;;;;7368399;19;20577;-76
2022/07/12 04:33:11;;;;;;;3.03;1.67;;;25.40;52.40;;;;;;7391163;19;20048;-75
2022/07/12 04:35:40;;;;;;;7.88;2.30;;;25.40;52.00;;;;;;7370759;19;20074;-75
2022/07/12 04:38:10;;;;;;;3.50;2.03;;;25.40;52.00;;;;;;7374003;19;20078;-74
2022/07/12 04:40:41;;;;;;;4.13;1.90;;;25.40;52.00;;;;;;7370804;19;20102;-75
2022/07/12 04:43:10;;;;;;;4.05;2.20;;;25.40;52.10;;;;;;7372429;19;20119;-74
2022/07/12 04:45:39;;;;;;;5.82;1.85;;;25.40;52.40;;;;;;7372125;19;20022;-75
2022/07/12 04:48:08;;;;;;;3.40;1.92;;;25.30;52.40;;;;;;7390723;19;20893;-74
2022/07/12 04:50:37;;;;;;;3.65;2.30;;;25.30;52.50;;;;;;7371731;19;20015;-74
2022/07/12 04:53:06;;;;;;;5.45;2.20;;;25.20;52.60;;;;;;7371195;19;20033;-75
2022/07/12 04:55:35;;;;;;;5.22;2.35;;;25.20;52.60;;;;;;7371124;19;20039;-75
2022/07/12 04:58:06;;;;;;;5.05;2.30;;;25.20;52.60;;;;;;7370650;19;20074;-75
2022/07/12 05:00:35;;;;;;;3.88;2.05;;;25.20;52.40;;;;;;7370683;19;20545;-74
2022/07/12 05:03:04;;;;;;;5.10;1.98;;;25.20;52.50;;;;;;7394056;19;20030;-75
2022/07/12 05:05:33;;;;;;;7.82;2.83;;;25.30;52.50;;;;;;7370503;19;20058;-75
2022/07/12 05:08:01;;;;;;;6.45;1.90;;;25.30;52.50;;;;;;7371583;19;20022;-74
2022/07/12 05:10:30;;;;;;;6.30;2.35;;;25.40;52.60;;;;;;7369894;19;20110;-74
2022/07/12 05:12:59;;;;;;;4.32;2.17;;;25.40;52.60;;;;;;7372290;19;20031;-75
2022/07/12 05:15:30;;;;;;;7.28;2.28;;;25.40;52.80;;;;;;7390719;19;20081;-74
2022/07/12 05:17:59;;;;;;;;;;;25.30;53.00;;;;;;7371949;19;20014;-75
2022/07/12 05:20:27;;;;;;;7.45;2.28;;;25.40;53.00;;;;;;7371517;19;19926;-75
2022/07/12 05:22:56;;;;;;;12.10;2.30;;;25.40;53.00;;;;;;7370406;19;20047;-75
2022/07/12 05:25:25;;;;;;;3.22;2.00;;;25.40;53.10;;;;;;7370837;19;20380;-74
2022/07/12 05:27:54;;;;;;;6.70;2.15;;;25.50;53.10;;;;;;7371366;19;20052;-75
2022/07/12 05:30:23;;;;;;;3.58;2.22;;;25.50;53.10;;;;;;7393176;19;20027;-75
2022/07/12 05:32:55;;;;;;;9.27;1.95;;;25.50;53.10;;;;;;7368166;19;20014;-76
2022/07/12 05:35:24;;;;;;;4.03;2.47;;;25.60;53.10;;;;;;7371554;19;20028;-75
2022/07/12 05:37:53;;;;;;;3.50;2.00;;;25.60;53.10;;;;;;7371614;19;20029;-75
2022/07/12 05:40:22;;;;;;;3.17;2.03;;;25.70;53.10;;;;;;7368702;19;20661;-75
2022/07/12 05:42:51;;;;;;;5.88;2.08;;;25.80;53.10;;;;;;7369641;19;20014;-75
2022/07/12 05:45:19;;;;;;;5.97;2.20;;;25.80;53.10;;;;;;7392699;19;20015;-75
2022/07/12 05:47:48;;;;;;;5.85;2.30;;;25.80;53.10;;;;;;7370826;19;20507;-75
2022/07/12 05:50:19;;;;;;;3.28;2.25;;;25.90;53.20;;;;;;7368557;19;20445;-75
2022/07/12 05:55:29;;;;;;;7.20;2.17;;;25.90;53.20;;;;;;7368327;19;20033;-75
2022/07/12 05:57:58;;;;;;;3.80;2.50;;;26.00;53.20;;;;;;7371514;19;20027;-75
2022/07/12 06:00:27;;;;;;;6.20;2.45;;;26.00;53.10;;;;;;7388762;19;20093;-75
2022/07/12 06:02:56;;;;;;;7.45;2.55;;;26.10;53.00;;;;;;7368685;19;20123;-75
2022/07/12 06:05:27;;;;;;;6.55;2.20;;;26.00;52.90;;;;;;7368252;19;20058;-75
2022/07/12 06:07:56;;;;;;;7.47;2.33;;;26.10;53.10;;;;;;7369262;19;20068;-76
2022/07/12 06:10:25;;;;;;;5.63;2.33;;;26.10;53.20;;;;;;7370017;19;20026;-75
2022/07/12 06:12:54;;;;;;;5.70;2.50;;;26.10;53.00;;;;;;7370788;19;20090;-75
2022/07/12 06:15:24;;;;;;;4.38;2.53;;;26.20;53.20;;;;;;7389903;19;20014;-74
2022/07/12 06:17:53;;;;;;;11.30;2.40;;;26.20;53.10;;;;;;7367599;19;20106;-75
2022/07/12 06:20:21;;;;;;;5.10;2.13;;;26.30;53.30;;;;;;7369271;19;20047;-74
2022/07/12 06:22:53;;;;;;;8.30;2.50;;;26.30;53.30;;;;;;7366585;19;20442;-77
2022/07/12 06:25:22;;;;;;;6.30;2.40;;;26.40;53.30;;;;;;7366633;19;20043;-79
2022/07/12 06:27:51;;;;;;;8.13;2.47;;;26.50;53.40;;;;;;7366191;19;20091;-79
2022/07/12 06:33:45;;;;;;;12.95;2.50;;;26.60;53.40;;;;;;7367058;19;20631;-78
2022/07/12 06:36:23;;;;;;;7.87;2.13;;;26.70;53.30;;;;;;7380426;19;20466;-78
2022/07/12 06:39:22;;;;;;;12.85;2.63;;;26.80;53.30;;;;;;7360645;19;20403;-77
2022/07/12 06:42:18;;;;;;;4.40;2.20;;;26.80;53.20;;;;;;7342752;19;20609;-77
2022/07/12 06:44:49;;;;;;;6.40;2.55;;;26.80;53.10;;;;;;7359744;19;20022;-78
2022/07/12 06:47:50;;;;;;;11.30;2.70;;;26.90;52.80;;;;;;7363536;19;20425;-77
2022/07/12 06:50:44;;;;;;;15.60;2.60;;;27.00;52.30;;;;;;7362300;19;20051;-77
2022/07/12 06:56:37;;;;;;;4.82;2.38;;;27.10;51.50;;;;;;7361767;19;20037;-77
2022/07/12 06:59:17;;;;;;;7.68;2.63;;;27.20;51.20;;;;;;7364778;19;20018;-78
2022/07/12 07:25:51;;;;;;;5.43;2.90;;;27.60;49.60;;;;;;7312668;19;20033;-79
2022/07/12 07:28:20;;;;;;;7.47;2.33;;;27.60;49.20;;;;;;7393665;19;20018;-77
2022/07/12 07:30:55;;;;;;;6.30;2.35;;;27.70;49.10;;;;;;7373888;19;20163;-81
2022/07/12 07:33:24;;;;;;;9.23;2.92;;;27.70;49.00;;;;;;7392494;19;20014;-80
2022/07/12 07:35:54;;;;;;;6.45;2.80;;;27.70;49.60;;;;;;7371481;19;20078;-82
2022/07/12 07:38:23;;;;;;;13.20;3.08;;;27.80;48.90;;;;;;7372150;19;20007;-81
2022/07/12 07:40:54;;;;;;;9.00;2.92;;;27.80;49.00;;;;;;7378551;19;20292;-84
2022/07/12 07:43:23;;;;;;;5.78;2.75;;;27.90;49.20;;;;;;7379204;19;20022;-79
2022/07/12 07:45:52;;;;;;;9.07;3.00;;;27.90;49.00;;;;;;7377316;19;20575;-82
2022/07/12 07:48:21;;;;;;;9.05;2.92;;;27.90;48.90;;;;;;7393782;19;20022;-80
2022/07/12 07:50:49;;;;;;;6.63;3.00;;;28.00;48.90;;;;;;7374595;19;20575;-80
2022/07/12 07:53:18;;;;;;;10.40;3.10;;;28.00;48.70;;;;;;7372624;19;20598;-81
2022/07/12 07:55:47;;;;;;;6.50;3.13;;;28.00;48.50;;;;;;7376986;19;20082;-82
2022/07/12 07:58:20;;;;;;;9.55;2.90;;;28.10;48.40;;;;;;7372444;19;20080;-80
2022/07/12 08:00:49;;;;;;;8.73;3.03;;;28.10;48.50;;;;;;7377579;19;20019;-80
2022/07/12 08:03:18;;;;;;;11.30;2.90;;;28.10;48.50;;;;;;7403073;19;20031;-81
2022/07/12 08:05:47;;;;;;;15.93;2.78;;;28.10;48.60;;;;;;7381272;19;20016;-80
2022/07/12 08:08:15;;;;;;;10.77;3.40;;;28.20;48.70;;;;;;7377664;19;20086;-79
2022/07/12 08:10:45;;;;;;;7.95;2.72;;;28.20;48.60;;;;;;7379086;19;20011;-79
2022/07/12 08:13:13;;;;;;;9.75;2.75;;;28.20;48.40;;;;;;7377714;19;20014;-80
2022/07/12 08:15:45;;;;;;;11.98;2.78;;;28.20;48.40;;;;;;7378430;19;20031;-80
2022/07/12 08:18:13;;;;;;;10.50;3.10;;;28.20;48.40;;;;;;7399211;19;20125;-81
2022/07/12 08:20:42;;;;;;;5.05;2.55;;;28.30;48.30;;;;;;7377027;19;20018;-82
2022/07/12 08:23:12;;;;;;;7.32;2.75;;;28.30;48.30;;;;;;7378141;19;20015;-80
2022/07/12 08:25:41;;;;;;;12.70;2.90;;;28.30;48.00;;;;;;7374124;19;20156;-80
2022/07/12 08:28:09;;;;;;;11.25;3.03;;;28.40;48.30;;;;;;7375545;19;20018;-79
2022/07/12 08:30:38;;;;;;;4.18;2.78;;;28.40;47.60;;;;;;7376315;19;20586;-78
2022/07/12 08:33:10;;;;;;;5.15;2.80;;;28.40;47.60;;;;;;7396101;19;20035;-79
2022/07/12 08:35:38;;;;;;;11.40;2.35;;;28.40;47.30;;;;;;7375593;19;20014;-79
2022/07/12 08:38:08;;;;;;;7.30;2.63;;;28.40;47.40;;;;;;7375298;19;20022;-79
2022/07/12 08:40:37;;;;;;;6.78;2.70;;;28.50;47.20;;;;;;7378081;19;20023;-79
2022/07/12 08:43:05;;;;;;;4.28;2.63;;;28.50;47.20;;;;;;7375969;19;20086;-80
2022/07/12 08:45:34;;;;;;;14.98;2.83;;;28.50;47.30;;;;;;7375187;19;20109;-78
2022/07/12 08:48:03;;;;;;;10.35;2.92;;;28.50;47.10;;;;;;7397520;19;20019;-79
2022/07/12 08:50:34;;;;;;;7.95;2.28;;;28.50;47.00;;;;;;7375126;19;20413;-82
2022/07/12 08:53:03;;;;;;;9.05;2.50;;;28.50;47.00;;;;;;7377086;19;20036;-82
2022/07/12 08:55:34;;;;;;;4.28;2.15;;;28.60;46.90;;;;;;7373505;19;20094;-78
2022/07/12 08:58:05;;;;;;;6.90;2.40;;;28.60;46.70;;;;;;7374571;19;20035;-78
2022/07/12 09:00:36;;;;;;;10.13;2.60;;;28.60;46.60;;;;;;7376167;19;20467;-78
2022/07/12 09:03:07;;;;;;;4.93;1.85;;;28.60;46.30;;;;;;7394406;19;20035;-79
2022/07/12 09:05:38;;;;;;;6.55;2.20;;;28.60;46.10;;;;;;7375132;19;20074;-78
2022/07/12 09:08:09;;;;;;;4.63;1.80;;;28.70;46.00;;;;;;7374802;19;20023;-78
2022/07/12 09:10:54;;;;;;;7.32;2.20;;;28.70;45.30;;;;;;7376635;19;20117;-79
2022/07/12 09:13:43;;;;;;;12.15;2.30;;;28.80;45.00;;;;;;7376884;19;20048;-80
2022/07/12 09:16:16;;;;;;;5.50;1.88;;;28.80;44.70;;;;;;7375217;19;20031;-80
2022/07/12 09:18:45;;;;;;;7.35;2.35;;;28.80;45.00;;;;;;7374839;19;20033;-78
2022/07/12 09:21:27;;;;;;;4.47;1.73;;;28.80;45.00;;;;;;7395897;19;20022;-80
2022/07/12 09:23:58;;;;;;;11.43;1.98;;;28.80;44.80;;;;;;7375745;19;20436;-80
2022/07/12 09:26:31;;;;;;;5.65;1.60;;;28.90;45.00;;;;;;7375745;19;20387;-80
2022/07/12 09:29:09;;;;;;;3.28;2.05;;;28.90;45.10;;;;;;7376279;19;20110;-77
2022/07/12 09:36:06;;;;;;;4.03;1.75;;;29.00;44.30;;;;;;7373941;19;20010;-79
2022/07/12 09:37:15;;;;;;;8.57;1.67;;;29.00;44.30;;;;;;7374491;19;20007;-79
2022/07/12 09:39:44;;;;;;;8.82;2.20;;;29.00;44.40;;;;;;7372401;19;20022;-78
2022/07/12 09:42:14;;;;;;;7.53;2.20;;;29.00;44.30;;;;;;7397839;19;20022;-80
2022/07/12 09:44:44;;;;;;;11.88;2.58;;;29.00;44.30;;;;;;7374178;19;20441;-79
2022/07/12 09:47:15;;;;;;;10.30;2.00;;;29.10;44.40;;;;;;7375412;19;20010;-80
2022/07/12 09:49:44;;;;;;;;;;;29.10;44.00;;;;;;7372407;19;20441;-75
2022/07/12 09:52:24;;;;;;;4.70;2.10;;;29.20;43.80;;;;;;7377445;19;19918;-85
2022/07/12 09:54:54;;;;;;;26.08;2.88;;;29.20;43.50;;;;;;7381348;19;20031;-84
2022/07/12 09:57:28;;;;;;;2.92;1.60;;;29.20;43.40;;;;;;7400579;19;20015;-86
2022/07/12 09:59:56;;;;;;;2.65;1.70;;;29.20;42.60;;;;;;7383689;19;20003;-85
2022/07/12 10:02:26;;;;;;;5.00;1.70;;;29.20;42.20;;;;;;7381608;19;20022;-90
2022/07/12 10:04:56;;;;;;;12.13;2.35;;;29.30;42.50;;;;;;7375527;19;20015;-79
2022/07/12 10:07:28;;;;;;;4.75;2.05;;;29.30;42.60;;;;;;7374088;19;20028;-83
2022/07/12 10:09:58;;;;;;;5.25;1.85;;;29.40;42.10;;;;;;7377192;19;20078;-84
2022/07/12 10:12:27;;;;;;;3.97;1.83;;;29.50;41.70;;;;;;7398895;19;20082;-82
2022/07/12 10:15:05;;;;;;;6.35;1.70;;;29.50;41.40;;;;;;7375772;19;20014;-83
2022/07/12 10:17:36;;;;;;;5.88;1.60;;;29.50;41.30;;;;;;7373106;19;20022;-83
2022/07/12 10:20:18;;;;;;;3.70;1.98;;;29.50;41.30;;;;;;7378277;19;20023;-84
2022/07/12 10:22:50;;;;;;;4.90;2.00;;;29.40;41.40;;;;;;7379472;19;20017;-83
2022/07/12 10:25:36;;;;;;;5.60;1.80;;;29.50;41.50;;;;;;7378186;19;20010;-86
2022/07/12 10:28:05;;;;;;;8.85;1.80;;;29.40;41.40;;;;;;7376695;19;20410;-86
2022/07/12 10:30:44;;;;;;;7.53;1.65;;;29.50;40.90;;;;;;7379581;19;20018;-82
2022/07/12 10:33:22;;;;;;;5.20;1.80;;;29.50;40.50;;;;;;7402605;19;20014;-85
2022/07/12 10:36:06;;;;;;;4.50;1.60;;;29.60;39.80;;;;;;7378142;19;20006;-86
2022/07/12 10:38:38;;;;;;;4.97;1.70;;;29.60;38.40;;;;;;7378155;19;20076;-85
2022/07/12 10:41:21;;;;;;;1.65;1.30;;;29.70;38.40;;;;;;7378867;19;20014;-85
2022/07/12 10:44:08;;;;;;;5.72;1.85;;;29.80;38.60;;;;;;7378388;19;20019;-85
2022/07/12 10:46:37;;;;;;;1.40;1.30;;;29.80;38.80;;;;;;7374718;19;20115;-85
2022/07/12 10:49:28;;;;;;;2.65;1.35;;;29.80;38.40;;;;;;7377722;19;20018;-84
2022/07/12 10:52:19;;;;;;;3.67;1.40;;;29.90;37.40;;;;;;7376007;19;20011;-84
2022/07/12 10:55:21;;;;;;;1.83;1.23;;;29.90;37.10;;;;;;7375872;19;20014;-83
2022/07/12 10:57:54;;;;;;;3.35;1.15;;;29.90;36.50;;;;;;7371927;19;20394;-77
2022/07/12 11:00:23;;;;;;;3.38;1.25;;;30.00;36.10;;;;;;7389385;19;20035;-76
2022/07/12 11:02:53;;;;;;;2.97;1.35;;;30.00;36.00;;;;;;7371293;19;20030;-77
2022/07/12 11:05:28;;;;;;;4.55;1.55;;;30.10;34.60;;;;;;7369849;19;20029;-77
2022/07/12 11:07:59;;;;;;;4.25;1.60;;;30.10;34.40;;;;;;7371547;19;20018;-77
2022/07/12 11:10:30;;;;;;;7.05;1.98;;;30.20;35.00;;;;;;7371951;19;20082;-77
2022/07/12 11:13:00;;;;;;;8.48;2.20;;;30.20;35.40;;;;;;7371066;19;20325;-78
2022/07/12 11:15:29;;;;;;;1.50;1.25;;;30.30;35.40;;;;;;7397495;19;20040;-78
2022/07/12 11:17:58;;;;;;;3.28;1.20;;;30.40;35.50;;;;;;7376303;19;20072;-78
2022/07/12 11:20:30;;;;;;;4.97;1.50;;;30.40;35.20;;;;;;7377459;19;20046;-78
2022/07/12 11:22:59;;;;;;;4.78;1.92;;;30.50;35.60;;;;;;7376247;19;20014;-77
2022/07/12 11:25:32;;;;;;;4.50;1.90;;;30.60;35.40;;;;;;7378448;19;20006;-78
2022/07/12 11:28:02;;;;;;;7.85;2.33;;;30.60;35.50;;;;;;7377217;19;20085;-78
2022/07/12 11:30:30;;;;;;;4.07;1.95;;;30.70;35.20;;;;;;7400088;19;20101;-78
2022/07/12 11:32:59;;;;;;;4.80;1.50;;;30.70;34.60;;;;;;7377098;19;20329;-78
2022/07/12 11:35:28;;;;;;;4.60;1.50;;;30.80;34.10;;;;;;7377776;19;20417;-78
2022/07/12 11:37:58;;;;;;;3.50;1.73;;;30.90;34.40;;;;;;7377613;19;20014;-77
2022/07/12 11:40:31;;;;;;;1.50;1.40;;;30.90;34.10;;;;;;7375753;19;20032;-77
2022/07/12 11:43:01;;;;;;;9.48;1.85;;;31.00;34.50;;;;;;7378859;19;20031;-77
2022/07/12 11:45:32;;;;;;;3.55;1.70;;;31.10;34.70;;;;;;7398517;19;20021;-77
2022/07/12 11:48:02;;;;;;;6.78;1.40;;;31.10;34.60;;;;;;7377428;19;20018;-77
2022/07/12 11:50:34;;;;;;;6.07;1.83;;;31.20;33.60;;;;;;7376556;19;20114;-77
2022/07/12 11:53:03;;;;;;;10.70;1.90;;;31.30;34.00;;;;;;7377501;19;20014;-78
2022/07/12 11:55:43;;;;;;;5.30;2.00;;;31.40;34.40;;;;;;7377202;19;20027;-77
2022/07/12 11:58:12;;;;;;;8.50;1.92;;;31.40;34.40;;;;;;7377431;19;20403;-77
2022/07/12 12:00:41;;;;;;;6.80;1.50;;;31.40;34.60;;;;;;7377455;19;20767;-78
2022/07/12 12:03:10;;;;;;;3.28;2.08;;;31.20;34.10;;;;;;7396995;19;20010;-77
2022/07/12 12:05:39;;;;;;;5.55;1.63;;;31.30;34.20;;;;;;7376298;19;20031;-77
2022/07/12 12:08:09;;;;;;;2.20;1.55;;;31.20;34.00;;;;;;7377757;19;20014;-77
2022/07/12 12:10:42;;;;;;;3.50;1.92;;;31.10;34.10;;;;;;7374569;19;20011;-78
2022/07/12 12:13:17;;;;;;;3.15;1.75;;;31.10;33.60;;;;;;7373824;19;20010;-79
2022/07/12 12:16:10;;;;;;;3.33;1.80;;;31.00;33.50;;;;;;7350498;19;20010;-85
2022/07/12 12:18:42;;;;;;;2.25;1.55;;;31.10;33.50;;;;;;7375241;19;20019;-77
2022/07/12 12:21:12;;;;;;;8.68;1.70;;;31.20;32.60;;;;;;7398639;19;20029;-78
2022/07/12 12:23:42;;;;;;;1.53;1.43;;;31.20;32.10;;;;;;7377007;19;20035;-78
2022/07/12 12:26:16;;;;;;;2.92;1.40;;;31.30;32.00;;;;;;7374109;19;20063;-78
2022/07/12 12:28:50;;;;;;;5.78;1.70;;;31.40;32.70;;;;;;7376484;19;20094;-77
2022/07/12 12:31:20;;;;;;;2.65;1.60;;;31.50;32.90;;;;;;7375165;19;20015;-78
2022/07/12 12:33:52;;;;;;;2.17;1.52;;;31.50;32.30;;;;;;7374810;19;20006;-79
2022/07/12 12:36:23;;;;;;;5.05;1.67;;;31.60;32.50;;;;;;7392601;19;20026;-79
2022/07/12 12:38:53;;;;;;;2.10;1.40;;;31.60;32.00;;;;;;7372786;19;20081;-79
2022/07/12 12:41:26;;;;;;;4.95;1.52;;;31.50;32.00;;;;;;7374842;19;20722;-78
2022/07/12 12:44:02;;;;;;;7.13;1.45;;;31.60;32.20;;;;;;7373895;19;20015;-77
2022/07/12 12:46:46;;;;;;;2.55;1.50;;;31.70;33.00;;;;;;7374325;19;20019;-82
2022/07/12 12:49:15;;;;;;;9.88;1.60;;;31.80;32.50;;;;;;7375987;19;20020;-77
2022/07/12 12:51:55;;;;;;;6.75;1.40;;;31.80;32.30;;;;;;7376467;19;20010;-78
2022/07/12 12:54:34;;;;;;;4.10;1.50;;;31.90;32.70;;;;;;7392229;19;20015;-77
2022/07/12 12:57:13;;;;;;;1.40;1.30;;;32.00;32.40;;;;;;7376103;19;20440;-80
2022/07/12 12:59:42;;;;;;;4.38;1.55;;;32.00;32.10;;;;;;7372428;19;20093;-77
2022/07/12 13:02:15;;;;;;;7.85;1.88;;;32.10;31.60;;;;;;7373780;19;20089;-78
2022/07/12 13:04:46;;;;;;;2.83;1.70;;;32.20;31.50;;;;;;7374509;19;20466;-82
2022/07/12 13:07:15;;;;;;;5.13;3.47;;;32.20;30.90;;;;;;7375526;19;20017;-79
2022/07/12 13:09:44;;;;;;;1.88;1.50;;;32.30;31.00;;;;;;7372614;19;20109;-79
2022/07/12 13:12:15;;;;;;;3.65;1.77;;;32.30;30.60;;;;;;7397505;19;20022;-79
2022/07/12 13:14:44;;;;;;;1.63;1.35;;;32.40;30.00;;;;;;7374195;19;20080;-80
2022/07/12 13:17:13;;;;;;;3.30;1.60;;;32.40;29.90;;;;;;7376540;19;20022;-80
2022/07/12 13:19:42;;;;;;;2.53;1.45;;;32.50;30.10;;;;;;7375348;19;20026;-80
2022/07/12 13:22:10;;;;;;;1.13;1.02;;;32.60;29.10;;;;;;7384930;19;20014;-82
2022/07/12 13:24:41;;;;;;;5.90;1.40;;;32.60;29.10;;;;;;7404267;19;20015;-82
2022/07/12 13:27:11;;;;;;;2.03;1.10;;;32.70;29.10;;;;;;7407328;19;20018;-82
2022/07/12 13:29:43;;;;;;;1.48;1.05;;;32.70;29.00;;;;;;7385135;19;20124;-83
2022/07/12 13:32:13;;;;;;;5.43;1.10;;;32.80;28.50;;;;;;7376306;19;20479;-85
2022/07/12 13:34:42;;;;;;;5.97;1.10;;;32.90;28.60;;;;;;7386378;19;20120;-83
2022/07/12 13:37:11;;;;;;;2.10;1.60;;;32.90;28.40;;;;;;7380938;19;20007;-84
2022/07/12 13:42:22;;;;;;;2.90;1.13;;;33.00;27.60;;;;;;7402474;19;20014;-84
2022/07/12 13:44:55;;;;;;;1.88;1.13;;;33.00;27.60;;;;;;7381599;19;20037;-85